Time;durP1;ratioP1;P1;durP2;ratioP2;P2;SDS_P1;SDS_P2;PMS_P1;PMS_P2;Temp;Humidity;BMP_temperature;BMP_pressure;BME280_temperature;BME280_humidity;BME280_pressure;Samples;Min_cycle;Max_cycle;Signal;HPM_P1;HPM_P2
2022/07/26 00:05:44;;;;;;;7.82;0.98;;;20.20;99.90;;;;;;12414253;28;20066;-39
2022/07/26 00:11:46;;;;;;;9.55;1.20;;;20.10;99.90;;;;;;12426940;28;20414;-40
2022/07/26 00:17:48;;;;;;;4.95;1.00;;;19.90;99.90;;;;;;12420765;28;20173;-35
2022/07/26 00:23:50;;;;;;;3.95;0.80;;;19.80;99.90;;;;;;12419179;28;20104;-35
2022/07/26 00:29:52;;;;;;;7.47;1.20;;;19.80;99.90;;;;;;12420778;28;20050;-39
2022/07/26 00:35:54;;;;;;;7.75;1.35;;;19.70;99.90;;;;;;12420527;28;20042;-35
2022/07/26 00:41:55;;;;;;;5.95;1.00;;;19.60;99.90;;;;;;12419476;28;20453;-35
2022/07/26 00:47:57;;;;;;;7.50;1.42;;;19.50;99.90;;;;;;12422438;28;20137;-35
2022/07/26 00:53:59;;;;;;;6.20;1.23;;;19.40;99.90;;;;;;12411594;28;20042;-35
2022/07/26 01:00:05;;;;;;;10.55;1.40;;;19.40;99.90;;;;;;12410557;28;20050;-39
2022/07/26 01:06:07;;;;;;;7.63;1.48;;;19.30;99.90;;;;;;12431554;28;20061;-39
2022/07/26 01:12:09;;;;;;;7.47;1.58;;;19.20;99.90;;;;;;12426993;28;20141;-35
2022/07/26 01:18:11;;;;;;;5.43;1.30;;;19.20;99.90;;;;;;12423095;28;20482;-41
2022/07/26 01:24:13;;;;;;;6.22;1.15;;;19.40;99.90;;;;;;12423141;28;20057;-35
2022/07/26 01:30:15;;;;;;;11.15;2.20;;;19.40;99.90;;;;;;12423609;28;20064;-40
2022/07/26 01:36:17;;;;;;;6.38;1.50;;;19.50;99.90;;;;;;12431969;28;20434;-35
2022/07/26 01:42:19;;;;;;;6.45;1.30;;;19.50;99.90;;;;;;12415767;28;20405;-40
2022/07/26 01:48:22;;;;;;;6.32;1.42;;;19.40;99.90;;;;;;12425836;28;20108;-35
2022/07/26 01:54:23;;;;;;;8.00;1.45;;;19.50;99.90;;;;;;12424375;28;20074;-39
2022/07/26 02:00:25;;;;;;;6.22;1.65;;;19.20;99.90;;;;;;12411171;28;20050;-35
2022/07/26 02:06:28;;;;;;;5.93;1.38;;;19.20;99.90;;;;;;12430891;28;20493;-35
2022/07/26 02:12:30;;;;;;;4.65;1.40;;;19.30;99.90;;;;;;12428300;28;20088;-39
2022/07/26 02:18:32;;;;;;;6.55;1.50;;;19.30;99.90;;;;;;12423668;28;20084;-35
2022/07/26 02:24:33;;;;;;;7.82;1.38;;;19.20;99.90;;;;;;12430990;28;20050;-35
2022/07/26 02:30:35;;;;;;;7.38;2.13;;;19.20;99.90;;;;;;12425763;28;20116;-35
2022/07/26 02:36:39;;;;;;;10.25;1.65;;;19.20;99.90;;;;;;12420351;28;20050;-39
2022/07/26 02:42:41;;;;;;;7.25;1.33;;;19.20;99.90;;;;;;12417784;28;20074;-35
2022/07/26 02:48:43;;;;;;;9.95;1.75;;;18.80;99.90;;;;;;12419979;28;21004;-35
2022/07/26 02:54:45;;;;;;;6.93;1.85;;;18.80;99.90;;;;;;12416177;28;20042;-40
2022/07/26 03:00:47;;;;;;;9.40;1.85;;;18.90;99.90;;;;;;12403666;28;20443;-38
2022/07/26 03:06:49;;;;;;;6.70;1.70;;;18.80;99.90;;;;;;12418958;28;20053;-35
2022/07/26 03:12:51;;;;;;;8.20;3.35;;;18.90;99.90;;;;;;12426845;28;20133;-34
2022/07/26 03:18:53;;;;;;;11.18;2.08;;;18.80;99.90;;;;;;12437327;28;20127;-39
2022/07/26 03:24:55;;;;;;;6.95;1.90;;;18.90;99.90;;;;;;12423976;28;20604;-39
2022/07/26 03:30:57;;;;;;;10.20;1.90;;;18.80;99.90;;;;;;12420083;28;20525;-39
2022/07/26 03:36:59;;;;;;;9.70;1.85;;;18.80;99.90;;;;;;12421869;28;20053;-39
2022/07/26 03:43:03;;;;;;;8.60;1.80;;;18.90;99.90;;;;;;12426728;28;20238;-35
2022/07/26 03:49:05;;;;;;;10.02;1.95;;;19.00;99.90;;;;;;12416801;28;20176;-39
2022/07/26 04:01:28;;;;;;;7.45;1.83;;;18.90;99.90;;;;;;12420793;28;20443;-40
2022/07/26 04:07:30;;;;;;;9.63;2.00;;;18.80;99.90;;;;;;12415068;28;20112;-35
2022/07/26 04:13:34;;;;;;;8.88;2.15;;;18.70;99.90;;;;;;12423024;28;20057;-39
2022/07/26 04:19:36;;;;;;;9.30;2.10;;;18.60;99.90;;;;;;12415930;28;20061;-34
2022/07/26 04:25:40;;;;;;;7.22;1.80;;;18.70;99.90;;;;;;12425060;28;20041;-39
2022/07/26 04:31:42;;;;;;;7.00;1.80;;;18.70;99.90;;;;;;12420598;28;20053;-38
2022/07/26 04:37:45;;;;;;;5.78;1.90;;;18.70;99.90;;;;;;12411535;28;20053;-35
2022/07/26 04:43:46;;;;;;;7.35;1.98;;;18.70;99.90;;;;;;12421176;28;20521;-35
2022/07/26 04:49:48;;;;;;;9.75;2.60;;;18.70;99.90;;;;;;12416340;28;20050;-40
2022/07/26 04:55:50;;;;;;;10.30;2.10;;;18.60;99.90;;;;;;12421075;28;20465;-39
2022/07/26 05:01:52;;;;;;;10.25;2.42;;;18.70;99.90;;;;;;12424889;28;20088;-39
2022/07/26 05:07:59;;;;;;;8.07;2.35;;;18.60;99.90;;;;;;12421161;28;20049;-34
2022/07/26 05:14:01;;;;;;;8.68;2.00;;;18.60;99.90;;;;;;12415433;28;20049;-40
2022/07/26 05:20:03;;;;;;;9.43;2.45;;;18.60;99.90;;;;;;12414644;28;20173;-35
2022/07/26 05:26:05;;;;;;;9.13;2.20;;;18.60;99.90;;;;;;12411130;28;20081;-35
2022/07/26 05:32:07;;;;;;;7.93;2.47;;;18.70;99.90;;;;;;12422331;28;20081;-39
2022/07/26 05:38:09;;;;;;;7.07;2.67;;;18.60;99.90;;;;;;12412666;28;20499;-35
2022/07/26 05:44:11;;;;;;;9.82;2.97;;;18.60;99.90;;;;;;12421063;28;20141;-38
2022/07/26 05:50:14;;;;;;;10.15;2.78;;;18.40;99.90;;;;;;12406655;28;20159;-35
2022/07/26 05:56:16;;;;;;;9.52;2.50;;;18.50;99.90;;;;;;12408443;28;20548;-34
2022/07/26 06:02:17;;;;;;;11.07;3.00;;;18.40;99.90;;;;;;12427190;28;20557;-34
2022/07/26 06:08:20;;;;;;;10.98;3.42;;;18.60;99.90;;;;;;12410825;28;20058;-40
2022/07/26 06:14:22;;;;;;;12.73;3.10;;;18.70;99.90;;;;;;12414878;28;20096;-35
2022/07/26 06:20:24;;;;;;;10.98;3.10;;;18.50;99.90;;;;;;12422782;28;20100;-35
2022/07/26 06:26:25;;;;;;;10.35;3.08;;;18.50;99.90;;;;;;12414487;28;20517;-35
2022/07/26 06:32:27;;;;;;;14.25;4.10;;;18.50;99.90;;;;;;12419773;28;20077;-38
2022/07/26 06:38:29;;;;;;;10.35;3.53;;;18.50;99.90;;;;;;12419852;28;20054;-35
2022/07/26 06:44:31;;;;;;;9.90;3.97;;;18.50;99.90;;;;;;12421894;28;20180;-38
2022/07/26 06:50:32;;;;;;;9.07;3.42;;;18.40;99.90;;;;;;12428522;28;20502;-35
2022/07/26 06:56:34;;;;;;;13.52;3.95;;;18.50;99.90;;;;;;12427244;28;20474;-35
2022/07/26 07:02:36;;;;;;;14.75;3.42;;;18.80;99.90;;;;;;12417488;28;20054;-34
2022/07/26 07:08:38;;;;;;;8.93;4.30;;;19.00;99.90;;;;;;12416041;28;20105;-35
2022/07/26 07:14:43;;;;;;;10.32;3.65;;;19.10;99.90;;;;;;12423377;28;20047;-41
2022/07/26 07:20:45;;;;;;;8.48;3.03;;;19.10;99.90;;;;;;12416458;28;20050;-35
2022/07/26 07:26:46;;;;;;;7.78;3.25;;;19.00;99.90;;;;;;12426663;28;20208;-35
2022/07/26 07:32:48;;;;;;;9.32;4.18;;;19.00;99.90;;;;;;12398602;28;20057;-35
2022/07/26 07:38:50;;;;;;;11.02;3.78;;;18.90;99.90;;;;;;12429453;28;20136;-35
2022/07/26 07:44:52;;;;;;;11.60;3.50;;;19.00;99.90;;;;;;12410293;28;20050;-38
2022/07/26 07:50:54;;;;;;;8.88;2.70;;;19.00;99.90;;;;;;12423391;28;20058;-35
2022/07/26 07:56:56;;;;;;;11.70;2.95;;;19.20;99.90;;;;;;12416639;28;20092;-39
2022/07/26 08:02:58;;;;;;;8.90;2.83;;;19.30;99.90;;;;;;12410656;28;20042;-35
2022/07/26 08:09:00;;;;;;;9.95;2.88;;;19.60;99.90;;;;;;12420722;28;20050;-41
2022/07/26 08:15:05;;;;;;;7.88;2.42;;;19.80;99.90;;;;;;12421911;28;20074;-39
2022/07/26 08:21:08;;;;;;;;;;;20.40;99.90;;;;;;12418983;28;20395;-37
2022/07/26 08:27:14;;;;;;;6.28;2.22;;;20.40;99.90;;;;;;12421534;28;20296;-34
2022/07/26 08:33:17;;;;;;;6.22;2.08;;;20.20;99.90;;;;;;12422431;28;20115;-35
2022/07/26 08:39:19;;;;;;;2.20;0.60;;;20.00;99.90;;;;;;12428006;28;20060;-39
2022/07/26 08:45:25;;;;;;;3.97;1.08;;;19.70;99.90;;;;;;12423867;28;20050;-39
2022/07/26 08:51:27;;;;;;;3.63;1.13;;;19.20;99.90;;;;;;12432407;28;20058;-35
2022/07/26 08:57:29;;;;;;;7.63;1.27;;;18.80;99.90;;;;;;12428891;28;20457;-39
2022/07/26 09:03:31;;;;;;;3.45;1.00;;;18.30;99.90;;;;;;12416419;28;20095;-39
2022/07/26 09:09:35;;;;;;;2.42;1.40;;;18.40;99.90;;;;;;12416621;28;20045;-35
2022/07/26 09:15:37;;;;;;;3.70;1.10;;;18.50;99.90;;;;;;12418029;28;20046;-40
2022/07/26 09:21:39;;;;;;;4.10;1.15;;;18.40;99.90;;;;;;12420935;28;20089;-35
2022/07/26 09:27:41;;;;;;;3.20;1.30;;;18.60;99.90;;;;;;12423850;28;20054;-35
2022/07/26 09:33:45;;;;;;;4.25;1.85;;;18.60;99.90;;;;;;12424305;28;20465;-39
2022/07/26 09:39:57;;;;;;;6.03;1.10;;;18.80;99.90;;;;;;12411572;28;20490;-39
2022/07/26 09:46:04;;;;;;;3.15;1.00;;;18.80;99.90;;;;;;12411023;28;20054;-35
2022/07/26 09:52:18;;;;;;;3.33;0.90;;;19.00;99.90;;;;;;12409552;28;20437;-35
2022/07/26 09:58:22;;;;;;;1.95;0.90;;;18.70;99.90;;;;;;12417398;28;20126;-39
2022/07/26 10:04:28;;;;;;;4.13;0.80;;;18.90;99.90;;;;;;12424191;28;20054;-39
2022/07/26 10:10:42;;;;;;;3.80;0.80;;;19.00;99.90;;;;;;12431780;28;20054;-39
2022/07/26 10:16:44;;;;;;;1.52;0.38;;;18.80;99.90;;;;;;12413902;28;20401;-34
2022/07/26 10:22:49;;;;;;;2.47;0.38;;;18.40;99.90;;;;;;12433026;28;20548;-40
2022/07/26 10:28:51;;;;;;;1.88;0.40;;;18.40;99.90;;;;;;12418171;28;20057;-39
2022/07/26 10:34:53;;;;;;;3.42;0.52;;;18.30;99.90;;;;;;12431158;28;20041;-34
2022/07/26 10:41:06;;;;;;;2.45;0.50;;;18.10;99.90;;;;;;12403777;28;20042;-36
2022/07/26 10:47:14;;;;;;;3.28;0.50;;;18.30;99.90;;;;;;12429503;28;20054;-35
2022/07/26 10:53:22;;;;;;;3.78;0.70;;;18.40;99.90;;;;;;12418208;28;20058;-35
2022/07/26 10:59:32;;;;;;;1.02;0.40;;;18.60;99.90;;;;;;12428179;28;20453;-35
2022/07/26 11:05:54;;;;;;;2.45;0.90;;;18.80;99.90;;;;;;12405784;28;20057;-39
2022/07/26 11:12:16;;;;;;;5.03;0.80;;;18.90;99.90;;;;;;12420795;28;20103;-35
2022/07/26 11:18:26;;;;;;;1.83;0.85;;;18.90;99.90;;;;;;12421297;28;20077;-35
2022/07/26 11:24:28;;;;;;;3.08;0.75;;;19.00;99.90;;;;;;12431568;28;20461;-40
2022/07/26 11:30:30;;;;;;;3.38;0.75;;;19.10;99.90;;;;;;12422276;28;20057;-40
2022/07/26 11:36:35;;;;;;;2.80;0.60;;;19.10;99.90;;;;;;12418608;28;20042;-39
2022/07/26 11:42:37;;;;;;;0.93;0.25;;;19.10;99.90;;;;;;12420049;28;20065;-35
2022/07/26 11:48:47;;;;;;;2.33;0.40;;;19.20;99.90;;;;;;12407639;28;20050;-39
2022/07/26 11:54:51;;;;;;;3.13;0.70;;;19.40;99.90;;;;;;12406427;28;20414;-40
2022/07/26 12:00:52;;;;;;;2.60;0.70;;;19.40;99.90;;;;;;12422919;28;20189;-39
2022/07/26 12:06:56;;;;;;;1.95;0.52;;;19.30;99.90;;;;;;12400859;28;20494;-39
2022/07/26 12:13:12;;;;;;;1.88;0.47;;;19.30;99.90;;;;;;12419280;28;20095;-41
2022/07/26 12:19:17;;;;;;;2.08;0.50;;;19.00;99.90;;;;;;12421860;28;20140;-35
2022/07/26 12:25:27;;;;;;;1.65;0.30;;;19.00;99.90;;;;;;12411047;28;20599;-35
2022/07/26 12:31:31;;;;;;;0.95;0.40;;;19.00;99.90;;;;;;12424153;28;20062;-39
2022/07/26 12:37:48;;;;;;;1.92;0.50;;;18.90;99.90;;;;;;12406578;28;20512;-40
2022/07/26 12:43:50;;;;;;;3.45;0.90;;;18.90;99.90;;;;;;12412110;28;20049;-35
2022/07/26 12:49:53;;;;;;;1.17;0.52;;;18.80;99.90;;;;;;12418879;28;20172;-35
2022/07/26 12:55:55;;;;;;;1.43;0.40;;;19.00;99.90;;;;;;12417754;28;20050;-34
2022/07/26 13:01:57;;;;;;;1.75;0.60;;;18.90;99.90;;;;;;12394058;28;20173;-39
2022/07/26 13:07:59;;;;;;;2.67;0.43;;;19.00;99.90;;;;;;12405242;28;20061;-40
2022/07/26 13:14:00;;;;;;;2.13;0.40;;;19.10;99.90;;;;;;12408450;28;20046;-39
2022/07/26 13:20:03;;;;;;;1.17;0.30;;;19.20;99.90;;;;;;12422075;28;20452;-35
2022/07/26 13:26:05;;;;;;;1.63;0.43;;;19.00;99.90;;;;;;12419915;28;20184;-39
2022/07/26 13:32:10;;;;;;;1.80;0.70;;;18.90;99.90;;;;;;12417011;28;20112;-39
2022/07/26 13:38:12;;;;;;;3.70;0.70;;;18.90;99.90;;;;;;12413101;28;20557;-42
2022/07/26 13:44:15;;;;;;;4.00;0.50;;;18.70;99.90;;;;;;12410705;28;20142;-39
2022/07/26 13:50:17;;;;;;;9.05;1.02;;;18.50;99.90;;;;;;12405995;28;20108;-40
2022/07/26 13:56:18;;;;;;;3.67;0.90;;;18.40;99.90;;;;;;12415175;28;20053;-38
2022/07/26 14:02:21;;;;;;;3.08;0.90;;;18.40;99.90;;;;;;12410038;28;20090;-35
2022/07/26 14:08:23;;;;;;;4.80;0.60;;;18.40;99.90;;;;;;12424403;28;20092;-40
2022/07/26 14:14:24;;;;;;;3.88;0.68;;;18.50;99.90;;;;;;12400704;28;20108;-35
2022/07/26 14:20:27;;;;;;;6.00;0.75;;;18.60;99.90;;;;;;12423986;28;20055;-35
2022/07/26 14:26:28;;;;;;;7.82;0.77;;;18.60;99.90;;;;;;12412012;28;20054;-39
2022/07/26 14:32:30;;;;;;;3.47;0.80;;;18.60;99.90;;;;;;12419389;28;20169;-40
2022/07/26 14:38:32;;;;;;;4.10;0.80;;;18.70;99.90;;;;;;12410712;28;20517;-35
2022/07/26 14:44:34;;;;;;;5.30;0.70;;;18.70;99.90;;;;;;12412667;28;20502;-39
2022/07/26 14:50:45;;;;;;;5.68;1.00;;;18.90;99.90;;;;;;12410272;28;20378;-39
2022/07/26 14:57:07;;;;;;;4.45;0.93;;;18.80;99.90;;;;;;12421828;28;20111;-39
2022/07/26 15:03:09;;;;;;;4.43;0.85;;;18.50;99.90;;;;;;12410396;28;20133;-34
2022/07/26 15:09:11;;;;;;;5.18;0.98;;;18.40;99.90;;;;;;12410962;28;20084;-39
2022/07/26 15:15:13;;;;;;;5.05;1.23;;;18.30;99.90;;;;;;12413581;28;20050;-34
2022/07/26 15:21:16;;;;;;;4.82;0.85;;;18.40;99.90;;;;;;12424038;28;20049;-34
2022/07/26 15:27:18;;;;;;;3.47;0.80;;;18.70;99.90;;;;;;12424941;28;20140;-39
2022/07/26 15:33:20;;;;;;;5.47;0.90;;;18.80;99.90;;;;;;12402179;28;20137;-39
2022/07/26 15:39:21;;;;;;;3.05;0.70;;;18.90;99.90;;;;;;12412804;28;20145;-34
2022/07/26 15:45:24;;;;;;;4.28;1.10;;;18.90;99.90;;;;;;12414752;28;20057;-34
2022/07/26 15:51:26;;;;;;;3.40;0.70;;;18.90;99.90;;;;;;12411926;28;20042;-39
2022/07/26 15:57:28;;;;;;;5.88;0.82;;;19.10;99.90;;;;;;12415758;28;20631;-35
2022/07/26 16:03:30;;;;;;;5.57;0.80;;;19.10;99.90;;;;;;12413422;28;20554;-35
2022/07/26 16:09:32;;;;;;;3.15;0.90;;;19.10;99.90;;;;;;12420265;28;20494;-38
2022/07/26 16:15:33;;;;;;;6.05;1.00;;;19.20;99.90;;;;;;12408152;28;20076;-36
2022/07/26 16:21:36;;;;;;;4.20;0.80;;;19.10;99.90;;;;;;12419945;28;20050;-35
2022/07/26 16:27:42;;;;;;;7.50;1.10;;;19.20;99.90;;;;;;12421479;28;20409;-35
2022/07/26 16:33:46;;;;;;;5.43;1.10;;;19.20;99.90;;;;;;12415822;28;20050;-39
2022/07/26 16:39:48;;;;;;;5.68;0.90;;;19.30;99.90;;;;;;12411879;28;20050;-35
2022/07/26 16:45:50;;;;;;;5.78;1.00;;;19.40;99.90;;;;;;12404581;28;20077;-40
2022/07/26 16:51:52;;;;;;;5.32;0.90;;;19.60;99.90;;;;;;12410550;28;20061;-35
2022/07/26 16:57:54;;;;;;;5.25;1.20;;;20.00;99.90;;;;;;12414274;28;20050;-39
2022/07/26 17:03:56;;;;;;;7.10;1.20;;;20.20;99.90;;;;;;12414710;28;20474;-34
2022/07/26 17:09:58;;;;;;;6.28;1.50;;;19.80;99.90;;;;;;12412509;28;20058;-41
2022/07/26 17:16:01;;;;;;;5.40;1.13;;;19.40;99.90;;;;;;12420929;28;20096;-39
2022/07/26 17:22:03;;;;;;;7.25;1.33;;;19.20;99.90;;;;;;12425441;28;20123;-40
2022/07/26 17:28:05;;;;;;;9.40;1.33;;;19.10;99.90;;;;;;12412114;28;20114;-39
2022/07/26 17:34:07;;;;;;;7.28;1.42;;;19.00;99.90;;;;;;12413794;28;20049;-40
2022/07/26 17:40:10;;;;;;;7.50;1.33;;;19.00;99.90;;;;;;12409257;28;20414;-35
2022/07/26 17:46:12;;;;;;;7.40;1.30;;;19.00;99.90;;;;;;12410544;28;20086;-40
2022/07/26 17:52:14;;;;;;;11.63;1.55;;;19.00;99.90;;;;;;12419023;28;20502;-39
2022/07/26 17:58:17;;;;;;;8.38;1.70;;;19.10;99.90;;;;;;12419325;28;20050;-35
2022/07/26 18:04:19;;;;;;;7.93;1.65;;;19.00;99.90;;;;;;12413179;28;20050;-39
2022/07/26 18:10:21;;;;;;;7.22;1.50;;;18.80;99.90;;;;;;12420029;28;20104;-39
2022/07/26 18:16:23;;;;;;;6.93;1.45;;;18.60;99.90;;;;;;12411646;28;20057;-40
2022/07/26 18:22:26;;;;;;;4.82;1.30;;;18.50;99.90;;;;;;12414766;28;20077;-34
2022/07/26 18:28:27;;;;;;;7.43;1.60;;;18.50;99.90;;;;;;12418314;28;20590;-34
2022/07/26 18:34:29;;;;;;;7.47;1.27;;;18.40;99.90;;;;;;12419609;28;20140;-34
2022/07/26 18:40:32;;;;;;;7.47;1.30;;;18.20;99.90;;;;;;12413899;28;20481;-34
2022/07/26 18:46:34;;;;;;;5.13;1.30;;;18.20;99.90;;;;;;12426562;28;20073;-35
2022/07/26 18:52:37;;;;;;;5.22;1.20;;;18.30;99.90;;;;;;12430882;28;20137;-35
2022/07/26 18:58:39;;;;;;;5.28;1.30;;;18.20;99.90;;;;;;12422851;28;20054;-40
2022/07/26 19:04:42;;;;;;;4.60;1.17;;;18.20;99.90;;;;;;12396710;28;20130;-35
2022/07/26 19:10:45;;;;;;;7.95;1.23;;;18.20;99.90;;;;;;12426418;28;20053;-35
2022/07/26 19:16:48;;;;;;;7.03;1.30;;;18.10;99.90;;;;;;12421882;28;20050;-40
2022/07/26 19:22:50;;;;;;;3.35;1.02;;;18.10;99.90;;;;;;12425888;28;20145;-34
2022/07/26 19:28:52;;;;;;;5.03;1.10;;;18.10;99.90;;;;;;12427600;28;20058;-35
2022/07/26 19:34:55;;;;;;;5.18;1.02;;;18.00;99.90;;;;;;12415518;28;20058;-39
2022/07/26 19:40:57;;;;;;;4.93;1.08;;;18.00;99.90;;;;;;12421998;28;20141;-39
2022/07/26 19:46:59;;;;;;;7.32;1.45;;;17.90;99.90;;;;;;12411671;28;20230;-39
2022/07/26 19:53:02;;;;;;;3.75;0.80;;;17.80;99.90;;;;;;12418009;28;20058;-39
2022/07/26 19:59:03;;;;;;;8.15;1.05;;;17.70;99.90;;;;;;12420595;28;20566;-35
2022/07/26 20:05:10;;;;;;;10.07;1.40;;;17.60;99.90;;;;;;12419451;28;20049;-39
2022/07/26 20:11:12;;;;;;;5.55;0.95;;;17.40;99.90;;;;;;12418708;28;20077;-34
2022/07/26 20:17:14;;;;;;;3.72;0.88;;;17.40;99.90;;;;;;12411475;28;20050;-34
2022/07/26 20:23:16;;;;;;;6.20;1.45;;;17.30;99.90;;;;;;12428772;28;20081;-38
2022/07/26 20:29:18;;;;;;;4.10;1.17;;;17.10;99.90;;;;;;12412036;28;20414;-34
2022/07/26 20:35:20;;;;;;;8.45;1.05;;;17.10;99.90;;;;;;12416596;28;20054;-38
2022/07/26 20:41:22;;;;;;;7.53;1.23;;;17.00;99.90;;;;;;12416170;28;20137;-38
2022/07/26 20:47:24;;;;;;;3.03;0.80;;;17.00;99.90;;;;;;12415521;28;20049;-39
2022/07/26 20:53:25;;;;;;;7.85;1.05;;;17.10;99.90;;;;;;12422030;28;20050;-34
2022/07/26 20:59:27;;;;;;;7.93;1.10;;;17.10;99.90;;;;;;12414040;28;20054;-39
2022/07/26 21:05:29;;;;;;;4.35;1.23;;;17.10;99.90;;;;;;12407581;28;20054;-39
2022/07/26 21:11:33;;;;;;;6.30;1.25;;;17.10;99.90;;;;;;12424946;28;20089;-34
2022/07/26 21:17:35;;;;;;;4.82;0.95;;;16.90;99.90;;;;;;12412253;28;20060;-34
2022/07/26 21:23:37;;;;;;;5.30;0.90;;;16.90;99.90;;;;;;12425379;28;20099;-39
2022/07/26 21:29:39;;;;;;;2.45;0.80;;;16.90;99.90;;;;;;12408916;28;20054;-39
2022/07/26 21:35:41;;;;;;;5.63;1.02;;;16.90;99.90;;;;;;12418324;28;20119;-34
2022/07/26 21:41:43;;;;;;;3.30;0.90;;;16.90;99.90;;;;;;12399846;28;20506;-39
2022/07/26 21:47:45;;;;;;;3.88;1.05;;;16.90;99.90;;;;;;12406929;28;20498;-35
2022/07/26 21:53:47;;;;;;;6.75;1.10;;;16.80;99.90;;;;;;12408066;28;20231;-34
2022/07/26 21:59:49;;;;;;;5.32;0.80;;;16.80;99.90;;;;;;12411900;28;20073;-34
2022/07/26 22:05:51;;;;;;;6.00;1.10;;;16.70;99.90;;;;;;12417582;28;20045;-34
2022/07/26 22:11:54;;;;;;;7.50;1.00;;;16.70;99.90;;;;;;12425138;28;20046;-34
2022/07/26 22:17:58;;;;;;;4.80;0.95;;;16.60;99.90;;;;;;12409756;28;20095;-38
2022/07/26 22:24:00;;;;;;;;;;;16.60;99.90;;;;;;12430676;28;20501;-34
2022/07/26 22:30:03;;;;;;;4.30;1.02;;;16.60;99.90;;;;;;12412054;28;19944;-39
2022/07/26 22:36:04;;;;;;;5.45;1.10;;;16.50;99.90;;;;;;12418422;28;20137;-39
2022/07/26 22:42:06;;;;;;;3.53;0.90;;;16.50;99.90;;;;;;12416988;28;20046;-38
2022/07/26 22:48:17;;;;;;;5.95;1.10;;;16.10;99.90;;;;;;12420095;28;20058;-38
2022/07/26 22:54:18;;;;;;;5.72;0.90;;;15.80;99.90;;;;;;12413667;28;20382;-34
2022/07/26 23:00:20;;;;;;;3.63;0.90;;;15.80;99.90;;;;;;12431225;28;20057;-34
2022/07/26 23:06:23;;;;;;;4.03;0.93;;;15.90;99.90;;;;;;12413654;28;20469;-34
2022/07/26 23:12:33;;;;;;;5.43;0.80;;;16.00;99.90;;;;;;12413633;28;20061;-34
2022/07/26 23:18:35;;;;;;;2.90;0.77;;;16.00;99.90;;;;;;12424952;28;20085;-34
2022/07/26 23:24:36;;;;;;;7.40;1.10;;;15.90;99.90;;;;;;12412667;28;20167;-39
2022/07/26 23:30:40;;;;;;;;;;;15.60;99.90;;;;;;12423053;28;20050;-39
2022/07/26 23:36:42;;;;;;;4.57;0.82;;;15.60;99.90;;;;;;12418528;28;19926;-34
2022/07/26 23:42:44;;;;;;;5.55;1.00;;;15.80;99.90;;;;;;12424534;28;20185;-34
2022/07/26 23:48:46;;;;;;;2.92;0.65;;;15.90;99.90;;;;;;12419513;28;20457;-34
2022/07/26 23:54:48;;;;;;;13.00;2.03;;;15.90;99.90;;;;;;12420398;28;20060;-41
